sensor_id;sensor_type;location;lat;lon;timestamp;pressure;altitude;pressure_sealevel;temperature;humidity
15932;BME280;8065;49.520;11.284;2023-03-24T00:01:28;96680.53;;;16.92;69.42
15932;BME280;8065;49.520;11.284;2023-03-24T00:03:56;96686.25;;;16.90;68.90
15932;BME280;8065;49.520;11.284;2023-03-24T00:06:23;96676.69;;;16.93;68.81
15932;BME280;8065;49.520;11.284;2023-03-24T00:08:50;96682.06;;;16.93;68.84
15932;BME280;8065;49.520;11.284;2023-03-24T00:11:17;96672.09;;;16.93;69.03
15932;BME280;8065;49.520;11.284;2023-03-24T00:13:45;96672.47;;;16.95;68.75
15932;BME280;8065;49.520;11.284;2023-03-24T00:16:14;96662.88;;;16.91;68.99
15932;BME280;8065;49.520;11.284;2023-03-24T00:18:44;96665.56;;;16.91;69.27
15932;BME280;8065;49.520;11.284;2023-03-24T00:21:19;96664.03;;;16.90;69.00
15932;BME280;8065;49.520;11.284;2023-03-24T00:23:48;96664.41;;;16.88;68.76
15932;BME280;8065;49.520;11.284;2023-03-24T00:26:15;96672.84;;;16.87;68.63
15932;BME280;8065;49.520;11.284;2023-03-24T00:28:44;96670.53;;;16.89;68.65
15932;BME280;8065;49.520;11.284;2023-03-24T00:31:12;96665.16;;;16.85;68.75
15932;BME280;8065;49.520;11.284;2023-03-24T00:33:40;96661.34;;;16.90;68.72
15932;BME280;8065;49.520;11.284;2023-03-24T00:36:10;96652.91;;;16.88;68.81
15932;BME280;8065;49.520;11.284;2023-03-24T00:38:39;96649.44;;;16.87;68.72
15932;BME280;8065;49.520;11.284;2023-03-24T00:41:07;96646.75;;;16.87;68.65
15932;BME280;8065;49.520;11.284;2023-03-24T00:43:34;96637.19;;;16.86;68.69
15932;BME280;8065;49.520;11.284;2023-03-24T00:46:03;96639.84;;;16.86;68.42
15932;BME280;8065;49.520;11.284;2023-03-24T00:48:31;96639.47;;;16.88;68.40
15932;BME280;8065;49.520;11.284;2023-03-24T00:51:00;96639.47;;;16.84;68.53
15932;BME280;8065;49.520;11.284;2023-03-24T00:53:28;96633.72;;;16.86;68.42
15932;BME280;8065;49.520;11.284;2023-03-24T00:55:57;96623.38;;;16.88;68.59
15932;BME280;8065;49.520;11.284;2023-03-24T00:58:24;96634.50;;;16.86;68.38
15932;BME280;8065;49.520;11.284;2023-03-24T01:00:55;96637.19;;;16.90;68.24
15932;BME280;8065;49.520;11.284;2023-03-24T01:03:23;96655.19;;;16.86;67.92
15932;BME280;8065;49.520;11.284;2023-03-24T01:05:51;96664.41;;;16.88;67.68
15932;BME280;8065;49.520;11.284;2023-03-24T01:08:22;96663.28;;;16.93;67.98
15932;BME280;8065;49.520;11.284;2023-03-24T01:10:50;96649.84;;;16.89;68.54
15932;BME280;8065;49.520;11.284;2023-03-24T01:13:20;96642.13;;;16.74;68.99
15932;BME280;8065;49.520;11.284;2023-03-24T01:15:47;96632.19;;;16.85;69.45
15932;BME280;8065;49.520;11.284;2023-03-24T01:18:15;96641.38;;;16.80;70.32
15932;BME280;8065;49.520;11.284;2023-03-24T01:20:43;96639.09;;;16.86;70.23
15932;BME280;8065;49.520;11.284;2023-03-24T01:23:12;96648.28;;;16.85;70.51
15932;BME280;8065;49.520;11.284;2023-03-24T01:25:39;96636.41;;;16.86;71.23
15932;BME280;8065;49.520;11.284;2023-03-24T01:28:09;96643.31;;;16.83;71.40
15932;BME280;8065;49.520;11.284;2023-03-24T01:30:38;96638.28;;;16.71;72.51
15932;BME280;8065;49.520;11.284;2023-03-24T01:33:05;96629.06;;;16.68;72.42
15932;BME280;8065;49.520;11.284;2023-03-24T01:35:31;96634.81;;;16.70;72.24
15932;BME280;8065;49.520;11.284;2023-03-24T01:37:58;96633.69;;;16.71;72.45
15932;BME280;8065;49.520;11.284;2023-03-24T01:40:28;96631.69;;;16.61;72.88
15932;BME280;8065;49.520;11.284;2023-03-24T01:42:55;96638.19;;;16.57;73.01
15932;BME280;8065;49.520;11.284;2023-03-24T01:45:53;96646.59;;;16.45;74.22
15932;BME280;8065;49.520;11.284;2023-03-24T01:48:23;96639.69;;;16.47;73.82
15932;BME280;8065;49.520;11.284;2023-03-24T01:50:55;96656.13;;;16.35;74.23
15932;BME280;8065;49.520;11.284;2023-03-24T01:53:24;96656.56;;;16.44;74.16
15932;BME280;8065;49.520;11.284;2023-03-24T01:55:51;96664.22;;;16.46;74.21
15932;BME280;8065;49.520;11.284;2023-03-24T01:58:19;96660.34;;;16.39;74.65
15932;BME280;8065;49.520;11.284;2023-03-24T02:00:47;96653.47;;;16.38;75.02
15932;BME280;8065;49.520;11.284;2023-03-24T02:03:17;96658.81;;;16.35;76.01
15932;BME280;8065;49.520;11.284;2023-03-24T02:05:46;96643.84;;;16.34;76.16
15932;BME280;8065;49.520;11.284;2023-03-24T02:08:18;96625.81;;;16.27;76.33
15932;BME280;8065;49.520;11.284;2023-03-24T02:10:47;96617.75;;;16.24;77.29
15932;BME280;8065;49.520;11.284;2023-03-24T02:13:14;96602.41;;;16.21;77.12
15932;BME280;8065;49.520;11.284;2023-03-24T02:15:45;96598.88;;;16.02;78.57
15932;BME280;8065;49.520;11.284;2023-03-24T02:18:24;96593.59;;;16.17;77.76
15932;BME280;8065;49.520;11.284;2023-03-24T02:26:55;96575.19;;;16.12;78.13
15932;BME280;8065;49.520;11.284;2023-03-24T02:29:42;96568.28;;;16.11;77.74
15932;BME280;8065;49.520;11.284;2023-03-24T02:32:47;96572.81;;;15.96;78.42
15932;BME280;8065;49.520;11.284;2023-03-24T02:38:42;96562.09;;;15.99;77.83
15932;BME280;8065;49.520;11.284;2023-03-24T02:41:19;96559.06;;;16.04;77.92
15932;BME280;8065;49.520;11.284;2023-03-24T02:43:52;96548.31;;;15.97;78.88
15932;BME280;8065;49.520;11.284;2023-03-24T02:46:26;96548.31;;;15.97;78.28
15932;BME280;8065;49.520;11.284;2023-03-24T02:49:08;96548.28;;;15.94;78.91
15932;BME280;8065;49.520;11.284;2023-03-24T02:51:39;96540.25;;;15.90;78.67
15932;BME280;8065;49.520;11.284;2023-03-24T02:54:13;96533.00;;;15.94;78.61
15932;BME280;8065;49.520;11.284;2023-03-24T02:56:46;96533.69;;;15.84;78.80
15932;BME280;8065;49.520;11.284;2023-03-24T02:59:18;96532.56;;;15.85;78.71
15932;BME280;8065;49.520;11.284;2023-03-24T03:01:50;96522.63;;;15.89;78.47
15932;BME280;8065;49.520;11.284;2023-03-24T03:04:24;96518.06;;;15.93;78.26
15932;BME280;8065;49.520;11.284;2023-03-24T03:06:54;96509.28;;;16.03;77.83
15932;BME280;8065;49.520;11.284;2023-03-24T03:09:23;96507.00;;;16.02;77.99
15932;BME280;8065;49.520;11.284;2023-03-24T03:11:56;96500.44;;;15.92;78.30
15932;BME280;8065;49.520;11.284;2023-03-24T03:14:27;96500.88;;;16.01;77.96
15932;BME280;8065;49.520;11.284;2023-03-24T03:16:59;96492.06;;;16.04;77.74
15932;BME280;8065;49.520;11.284;2023-03-24T03:19:31;96485.19;;;16.03;77.37
15932;BME280;8065;49.520;11.284;2023-03-24T03:21:59;96492.47;;;16.06;77.77
15932;BME280;8065;49.520;11.284;2023-03-24T03:24:30;96481.75;;;16.06;77.67
15932;BME280;8065;49.520;11.284;2023-03-24T03:27:03;96488.28;;;16.13;77.27
15932;BME280;8065;49.520;11.284;2023-03-24T03:29:35;96492.09;;;16.12;76.76
15932;BME280;8065;49.520;11.284;2023-03-24T03:32:06;96481.00;;;16.10;76.42
15932;BME280;8065;49.520;11.284;2023-03-24T03:34:39;96481.78;;;16.14;76.26
15932;BME280;8065;49.520;11.284;2023-03-24T03:37:10;96478.69;;;16.12;76.24
15932;BME280;8065;49.520;11.284;2023-03-24T03:39:42;96475.66;;;16.17;75.60
15932;BME280;8065;49.520;11.284;2023-03-24T03:42:13;96486.38;;;16.17;76.39
15932;BME280;8065;49.520;11.284;2023-03-24T03:44:40;96481.78;;;16.21;75.95
15932;BME280;8065;49.520;11.284;2023-03-24T03:47:07;96476.41;;;16.14;75.19
15932;BME280;8065;49.520;11.284;2023-03-24T03:49:33;96472.19;;;16.16;75.03
15932;BME280;8065;49.520;11.284;2023-03-24T03:52:00;96480.25;;;16.20;75.36
15932;BME280;8065;49.520;11.284;2023-03-24T03:54:28;96476.81;;;16.23;74.68
15932;BME280;8065;49.520;11.284;2023-03-24T03:56:58;96475.69;;;16.27;73.77
15932;BME280;8065;49.520;11.284;2023-03-24T03:59:29;96479.53;;;16.30;73.86
15932;BME280;8065;49.520;11.284;2023-03-24T04:02:00;96473.41;;;16.33;74.06
15932;BME280;8065;49.520;11.284;2023-03-24T04:04:54;96478.38;;;16.27;74.05
15932;BME280;8065;49.520;11.284;2023-03-24T04:07:32;96472.63;;;16.32;73.60
15932;BME280;8065;49.520;11.284;2023-03-24T04:10:07;96475.69;;;16.31;73.54
15932;BME280;8065;49.520;11.284;2023-03-24T04:12:48;96470.34;;;16.34;73.33
15932;BME280;8065;49.520;11.284;2023-03-24T04:15:29;96476.47;;;16.35;73.19
15932;BME280;8065;49.520;11.284;2023-03-24T04:18:08;96481.84;;;16.35;73.75
15932;BME280;8065;49.520;11.284;2023-03-24T04:20:42;96468.06;;;16.40;73.07
15932;BME280;8065;49.520;11.284;2023-03-24T04:23:19;96464.19;;;16.27;73.13
15932;BME280;8065;49.520;11.284;2023-03-24T04:25:56;96480.66;;;16.29;73.42
15932;BME280;8065;49.520;11.284;2023-03-24T04:28:34;96481.84;;;16.35;73.39
15932;BME280;8065;49.520;11.284;2023-03-24T04:31:07;96470.31;;;16.24;73.12
15932;BME280;8065;49.520;11.284;2023-03-24T04:33:45;96482.59;;;16.39;72.47
15932;BME280;8065;49.520;11.284;2023-03-24T04:36:20;96473.03;;;16.45;72.58
15932;BME280;8065;49.520;11.284;2023-03-24T04:38:49;96468.84;;;16.44;72.35
15932;BME280;8065;49.520;11.284;2023-03-24T04:41:20;96461.91;;;16.50;72.01
15932;BME280;8065;49.520;11.284;2023-03-24T04:43:51;96468.44;;;16.42;72.25
15932;BME280;8065;49.520;11.284;2023-03-24T04:46:19;96463.47;;;16.44;72.32
15932;BME280;8065;49.520;11.284;2023-03-24T04:48:46;96460.38;;;16.53;72.08
15932;BME280;8065;49.520;11.284;2023-03-24T04:51:14;96457.72;;;16.46;72.08
15932;BME280;8065;49.520;11.284;2023-03-24T04:53:41;96458.09;;;16.51;71.78
15932;BME280;8065;49.520;11.284;2023-03-24T04:56:24;96463.47;;;16.44;72.12
15932;BME280;8065;49.520;11.284;2023-03-24T04:58:54;96463.47;;;16.37;72.13
15932;BME280;8065;49.520;11.284;2023-03-24T05:01:22;96463.84;;;16.46;71.96
15932;BME280;8065;49.520;11.284;2023-03-24T05:03:50;96465.78;;;16.46;71.95
15932;BME280;8065;49.520;11.284;2023-03-24T05:06:17;96461.91;;;16.47;71.49
15932;BME280;8065;49.520;11.284;2023-03-24T05:08:43;96454.28;;;16.45;72.49
15932;BME280;8065;49.520;11.284;2023-03-24T05:11:10;96457.31;;;16.47;71.85
15932;BME280;8065;49.520;11.284;2023-03-24T05:13:36;96458.84;;;16.48;71.96
15932;BME280;8065;49.520;11.284;2023-03-24T05:16:03;96451.19;;;16.50;72.01
15932;BME280;8065;49.520;11.284;2023-03-24T05:18:31;96450.44;;;16.46;72.00
15932;BME280;8065;49.520;11.284;2023-03-24T05:20:58;96444.28;;;16.49;71.65
15932;BME280;8065;49.520;11.284;2023-03-24T05:23:24;96450.81;;;16.48;71.79
15932;BME280;8065;49.520;11.284;2023-03-24T05:25:51;96451.94;;;16.47;71.59
15932;BME280;8065;49.520;11.284;2023-03-24T05:28:17;96441.63;;;16.38;71.93
15932;BME280;8065;49.520;11.284;2023-03-24T05:30:44;96443.53;;;16.31;72.25
15932;BME280;8065;49.520;11.284;2023-03-24T05:33:10;96452.34;;;16.49;71.43
15932;BME280;8065;49.520;11.284;2023-03-24T05:35:38;96458.47;;;16.50;71.34
15932;BME280;8065;49.520;11.284;2023-03-24T05:38:04;96456.56;;;16.57;71.58
15932;BME280;8065;49.520;11.284;2023-03-24T05:40:31;96466.53;;;16.57;71.15
15932;BME280;8065;49.520;11.284;2023-03-24T05:42:57;96454.66;;;16.61;71.19
15932;BME280;8065;49.520;11.284;2023-03-24T05:45:24;96447.41;;;16.65;70.99
15932;BME280;8065;49.520;11.284;2023-03-24T05:47:50;96451.25;;;16.64;70.96
15932;BME280;8065;49.520;11.284;2023-03-24T05:50:17;96453.91;;;16.64;70.85
15932;BME280;8065;49.520;11.284;2023-03-24T05:52:45;96453.16;;;16.67;70.75
15932;BME280;8065;49.520;11.284;2023-03-24T05:55:12;96460.06;;;16.72;70.59
15932;BME280;8065;49.520;11.284;2023-03-24T05:57:40;96463.13;;;16.67;70.18
15932;BME280;8065;49.520;11.284;2023-03-24T06:00:08;96458.16;;;16.73;70.42
15932;BME280;8065;49.520;11.284;2023-03-24T06:02:39;96468.88;;;16.73;69.76
15932;BME280;8065;49.520;11.284;2023-03-24T06:05:06;96482.28;;;16.80;69.90
15932;BME280;8065;49.520;11.284;2023-03-24T06:07:34;96482.69;;;16.78;69.75
15932;BME280;8065;49.520;11.284;2023-03-24T06:10:02;96477.31;;;16.82;69.71
15932;BME280;8065;49.520;11.284;2023-03-24T06:12:29;96489.59;;;16.90;69.79
15932;BME280;8065;49.520;11.284;2023-03-24T06:14:56;96489.97;;;16.92;70.05
15932;BME280;8065;49.520;11.284;2023-03-24T06:17:22;96482.69;;;16.92;70.36
15932;BME280;8065;49.520;11.284;2023-03-24T06:19:49;96492.66;;;16.85;70.03
15932;BME280;8065;49.520;11.284;2023-03-24T06:22:16;96481.16;;;16.91;70.25
15932;BME280;8065;49.520;11.284;2023-03-24T06:24:43;96480.00;;;16.96;70.31
15932;BME280;8065;49.520;11.284;2023-03-24T06:27:12;96483.44;;;16.89;70.16
15932;BME280;8065;49.520;11.284;2023-03-24T06:29:39;96481.16;;;16.95;70.15
15932;BME280;8065;49.520;11.284;2023-03-24T06:32:07;96477.31;;;16.96;70.37
15932;BME280;8065;49.520;11.284;2023-03-24T06:34:34;96478.84;;;16.97;70.29
15932;BME280;8065;49.520;11.284;2023-03-24T06:37:00;96470.41;;;16.95;70.49
15932;BME280;8065;49.520;11.284;2023-03-24T06:39:27;96481.16;;;16.95;70.37
15932;BME280;8065;49.520;11.284;2023-03-24T06:41:53;96475.03;;;16.94;70.70
15932;BME280;8065;49.520;11.284;2023-03-24T06:44:21;96480.78;;;17.00;70.34
15932;BME280;8065;49.520;11.284;2023-03-24T06:46:48;96487.28;;;16.99;70.44
15932;BME280;8065;49.520;11.284;2023-03-24T06:49:14;96492.28;;;17.00;70.34
15932;BME280;8065;49.520;11.284;2023-03-24T06:51:41;96511.06;;;17.00;70.22
15932;BME280;8065;49.520;11.284;2023-03-24T06:54:07;96515.28;;;16.98;70.67
15932;BME280;8065;49.520;11.284;2023-03-24T06:56:33;96523.34;;;16.98;70.79
15932;BME280;8065;49.520;11.284;2023-03-24T06:59:00;96534.44;;;16.96;71.38
15932;BME280;8065;49.520;11.284;2023-03-24T07:01:28;96540.59;;;16.93;71.68
15932;BME280;8065;49.520;11.284;2023-03-24T07:03:54;96550.94;;;16.95;72.41
15932;BME280;8065;49.520;11.284;2023-03-24T07:06:21;96550.94;;;16.95;72.77
15932;BME280;8065;49.520;11.284;2023-03-24T07:08:48;96534.81;;;16.91;72.90
15932;BME280;8065;49.520;11.284;2023-03-24T07:11:14;96546.34;;;16.92;72.98
15932;BME280;8065;49.520;11.284;2023-03-24T07:13:41;96545.94;;;16.90;73.71
15932;BME280;8065;49.520;11.284;2023-03-24T07:16:07;96547.88;;;16.93;73.73
15932;BME280;8065;49.520;11.284;2023-03-24T07:18:35;96550.94;;;16.91;73.94
15932;BME280;8065;49.520;11.284;2023-03-24T07:21:02;96563.59;;;16.91;74.21
15932;BME280;8065;49.520;11.284;2023-03-24T07:23:28;96564.34;;;16.91;74.26
15932;BME280;8065;49.520;11.284;2023-03-24T07:25:56;96562.03;;;16.83;74.51
15932;BME280;8065;49.520;11.284;2023-03-24T07:28:23;96558.59;;;16.82;74.33
15932;BME280;8065;49.520;11.284;2023-03-24T07:30:49;96571.63;;;16.84;73.95
15932;BME280;8065;49.520;11.284;2023-03-24T07:33:16;96570.47;;;16.85;74.28
15932;BME280;8065;49.520;11.284;2023-03-24T07:35:44;96563.97;;;16.86;74.04
15932;BME280;8065;49.520;11.284;2023-03-24T07:38:11;96566.25;;;16.87;73.72
15932;BME280;8065;49.520;11.284;2023-03-24T07:40:38;96564.72;;;16.90;73.43
15932;BME280;8065;49.520;11.284;2023-03-24T07:43:04;96568.94;;;16.91;73.61
15932;BME280;8065;49.520;11.284;2023-03-24T07:45:31;96572.41;;;16.95;73.20
15932;BME280;8065;49.520;11.284;2023-03-24T07:47:58;96583.16;;;16.95;73.42
15932;BME280;8065;49.520;11.284;2023-03-24T07:50:26;96573.16;;;16.92;73.12
15932;BME280;8065;49.520;11.284;2023-03-24T07:52:54;96578.53;;;16.92;73.29
15932;BME280;8065;49.520;11.284;2023-03-24T07:55:21;96578.53;;;16.99;73.44
15932;BME280;8065;49.520;11.284;2023-03-24T07:57:48;96584.69;;;17.07;73.22
15932;BME280;8065;49.520;11.284;2023-03-24T08:00:16;96577.78;;;17.09;73.01
15932;BME280;8065;49.520;11.284;2023-03-24T08:02:45;96570.13;;;17.11;73.00
15932;BME280;8065;49.520;11.284;2023-03-24T08:05:12;96578.56;;;17.06;72.92
15932;BME280;8065;49.520;11.284;2023-03-24T08:07:39;96573.97;;;17.10;72.81
15932;BME280;8065;49.520;11.284;2023-03-24T08:10:10;96573.97;;;17.10;72.60
15932;BME280;8065;49.520;11.284;2023-03-24T08:12:36;96564.75;;;17.04;73.26
15932;BME280;8065;49.520;11.284;2023-03-24T08:15:04;96560.53;;;17.10;72.81
15932;BME280;8065;49.520;11.284;2023-03-24T08:17:30;96557.84;;;17.03;72.66
15932;BME280;8065;49.520;11.284;2023-03-24T08:19:57;96552.50;;;17.10;72.54
15932;BME280;8065;49.520;11.284;2023-03-24T08:22:24;96555.16;;;16.96;73.09
15932;BME280;8065;49.520;11.284;2023-03-24T08:24:51;96562.44;;;17.06;72.86
15932;BME280;8065;49.520;11.284;2023-03-24T08:27:19;96565.53;;;17.15;72.68
15932;BME280;8065;49.520;11.284;2023-03-24T08:29:45;96560.16;;;17.19;72.57
15932;BME280;8065;49.520;11.284;2023-03-24T08:32:12;96562.47;;;17.20;72.64
15932;BME280;8065;49.520;11.284;2023-03-24T08:34:38;96560.94;;;17.19;72.59
15932;BME280;8065;49.520;11.284;2023-03-24T08:37:05;96567.44;;;17.18;72.37
15932;BME280;8065;49.520;11.284;2023-03-24T08:39:32;96570.91;;;17.15;72.62
15932;BME280;8065;49.520;11.284;2023-03-24T08:42:00;96577.81;;;17.16;72.94
15932;BME280;8065;49.520;11.284;2023-03-24T08:44:28;96576.66;;;17.17;73.31
15932;BME280;8065;49.520;11.284;2023-03-24T08:46:54;96583.53;;;17.04;73.49
15932;BME280;8065;49.520;11.284;2023-03-24T08:49:21;96579.34;;;17.17;73.15
15932;BME280;8065;49.520;11.284;2023-03-24T08:51:47;96579.34;;;17.17;73.65
15932;BME280;8065;49.520;11.284;2023-03-24T08:54:14;96579.34;;;17.14;73.95
15932;BME280;8065;49.520;11.284;2023-03-24T08:56:40;96590.47;;;17.16;74.41
15932;BME280;8065;49.520;11.284;2023-03-24T08:59:07;96594.69;;;17.13;75.29
15932;BME280;8065;49.520;11.284;2023-03-24T09:01:34;96601.56;;;17.07;76.28
15932;BME280;8065;49.520;11.284;2023-03-24T09:04:01;96598.50;;;17.05;76.68
15932;BME280;8065;49.520;11.284;2023-03-24T09:06:28;96605.34;;;16.85;77.96
15932;BME280;8065;49.520;11.284;2023-03-24T09:08:55;96589.28;;;16.92;77.34
15932;BME280;8065;49.520;11.284;2023-03-24T09:11:21;96605.34;;;16.85;77.97
15932;BME280;8065;49.520;11.284;2023-03-24T09:13:48;96604.56;;;16.81;78.73
15932;BME280;8065;49.520;11.284;2023-03-24T09:16:15;96598.81;;;16.79;79.42
15932;BME280;8065;49.520;11.284;2023-03-24T09:18:44;96609.16;;;16.77;80.14
15932;BME280;8065;49.520;11.284;2023-03-24T09:21:10;96603.03;;;16.73;80.94
15932;BME280;8065;49.520;11.284;2023-03-24T09:23:37;96608.00;;;16.70;80.93
15932;BME280;8065;49.520;11.284;2023-03-24T09:26:04;96616.75;;;16.60;81.94
15932;BME280;8065;49.520;11.284;2023-03-24T09:28:31;96604.88;;;16.61;82.16
15932;BME280;8065;49.520;11.284;2023-03-24T09:30:58;96611.00;;;16.58;82.34
15932;BME280;8065;49.520;11.284;2023-03-24T09:33:26;96617.47;;;16.50;82.68
15932;BME280;8065;49.520;11.284;2023-03-24T09:35:56;96619.00;;;16.51;83.06
15932;BME280;8065;49.520;11.284;2023-03-24T09:38:22;96610.56;;;16.49;83.58
15932;BME280;8065;49.520;11.284;2023-03-24T09:40:53;96605.56;;;16.37;84.61
15932;BME280;8065;49.520;11.284;2023-03-24T09:43:25;96603.66;;;16.37;84.90
15932;BME280;8065;49.520;11.284;2023-03-24T09:45:54;96605.94;;;16.35;85.08
15932;BME280;8065;49.520;11.284;2023-03-24T09:48:27;96576.81;;;16.34;85.27
15932;BME280;8065;49.520;11.284;2023-03-24T09:51:02;96559.53;;;16.21;87.08
15932;BME280;8065;49.520;11.284;2023-03-24T09:53:34;96579.88;;;16.32;86.27
15932;BME280;8065;49.520;11.284;2023-03-24T09:56:10;96613.56;;;16.30;86.91
15932;BME280;8065;49.520;11.284;2023-03-24T09:58:37;96616.63;;;16.25;87.65
15932;BME280;8065;49.520;11.284;2023-03-24T10:01:10;96605.16;;;16.35;86.53
15932;BME280;8065;49.520;11.284;2023-03-24T10:03:38;96612.84;;;16.40;86.94
15932;BME280;8065;49.520;11.284;2023-03-24T10:06:08;96599.09;;;16.45;86.80
15932;BME280;8065;49.520;11.284;2023-03-24T10:08:36;96594.50;;;16.53;86.84
15932;BME280;8065;49.520;11.284;2023-03-24T10:11:06;96603.31;;;16.53;87.27
15932;BME280;8065;49.520;11.284;2023-03-24T10:13:45;96596.81;;;16.61;86.90
15932;BME280;8065;49.520;11.284;2023-03-24T10:16:19;96601.84;;;16.66;87.69
15932;BME280;8065;49.520;11.284;2023-03-24T10:18:55;96601.47;;;16.68;88.08
15932;BME280;8065;49.520;11.284;2023-03-24T10:21:25;96600.75;;;16.78;87.43
15932;BME280;8065;49.520;11.284;2023-03-24T10:23:57;96607.63;;;16.76;87.22
15932;BME280;8065;49.520;11.284;2023-03-24T10:26:31;96606.88;;;16.79;87.63
15932;BME280;8065;49.520;11.284;2023-03-24T10:29:12;96596.53;;;16.81;87.31
15932;BME280;8065;49.520;11.284;2023-03-24T10:31:45;96595.78;;;16.84;87.16
15932;BME280;8065;49.520;11.284;2023-03-24T10:34:13;96592.31;;;16.83;87.55
15932;BME280;8065;49.520;11.284;2023-03-24T10:36:41;96610.75;;;16.99;86.97
15932;BME280;8065;49.520;11.284;2023-03-24T10:39:13;96609.63;;;17.07;87.05
15932;BME280;8065;49.520;11.284;2023-03-24T10:41:42;96608.06;;;16.92;86.81
15932;BME280;8065;49.520;11.284;2023-03-24T10:44:10;96601.53;;;16.93;86.82
15932;BME280;8065;49.520;11.284;2023-03-24T10:46:44;96596.19;;;17.03;86.55
15932;BME280;8065;49.520;11.284;2023-03-24T10:49:14;96593.81;;;16.70;85.98
15932;BME280;8065;49.520;11.284;2023-03-24T10:51:45;96593.13;;;16.98;85.38
15932;BME280;8065;49.520;11.284;2023-03-24T10:54:16;96599.25;;;17.02;85.48
15932;BME280;8065;49.520;11.284;2023-03-24T10:56:45;96599.25;;;17.02;85.35
15932;BME280;8065;49.520;11.284;2023-03-24T10:59:21;96589.28;;;16.92;86.54
15932;BME280;8065;49.520;11.284;2023-03-24T11:01:55;96586.22;;;17.00;86.37
15932;BME280;8065;49.520;11.284;2023-03-24T11:04:22;96600.03;;;17.06;86.38
15932;BME280;8065;49.520;11.284;2023-03-24T11:07:02;96598.50;;;17.01;86.17
15932;BME280;8065;49.520;11.284;2023-03-24T11:09:37;96599.97;;;16.81;86.85
15932;BME280;8065;49.520;11.284;2023-03-24T11:12:05;96598.47;;;16.94;86.32
15932;BME280;8065;49.520;11.284;2023-03-24T11:14:45;96600.00;;;16.92;85.77
15932;BME280;8065;49.520;11.284;2023-03-24T11:17:13;96600.03;;;17.06;84.90
15932;BME280;8065;49.520;11.284;2023-03-24T11:19:49;96600.03;;;17.13;84.71
15932;BME280;8065;49.520;11.284;2023-03-24T11:22:18;96596.19;;;17.00;83.88
15932;BME280;8065;49.520;11.284;2023-03-24T11:24:47;96603.09;;;17.08;84.02
15932;BME280;8065;49.520;11.284;2023-03-24T11:27:14;96606.19;;;17.10;82.93
15932;BME280;8065;49.520;11.284;2023-03-24T11:29:43;96603.50;;;17.10;82.73
15932;BME280;8065;49.520;11.284;2023-03-24T11:32:19;96588.91;;;17.11;82.64
15932;BME280;8065;49.520;11.284;2023-03-24T11:35:01;96583.56;;;17.18;82.60
15932;BME280;8065;49.520;11.284;2023-03-24T11:37:33;96577.44;;;17.28;82.40
15932;BME280;8065;49.520;11.284;2023-03-24T11:40:16;96575.50;;;17.32;82.42
15932;BME280;8065;49.520;11.284;2023-03-24T11:42:45;96569.38;;;17.25;82.81
15932;BME280;8065;49.520;11.284;2023-03-24T11:45:20;96573.97;;;17.28;83.08
15932;BME280;8065;49.520;11.284;2023-03-24T11:47:49;96572.81;;;17.18;83.62
15932;BME280;8065;49.520;11.284;2023-03-24T11:50:19;96565.91;;;17.17;83.43
15932;BME280;8065;49.520;11.284;2023-03-24T11:52:52;96555.56;;;17.23;83.74
15932;BME280;8065;49.520;11.284;2023-03-24T11:55:26;96560.94;;;17.19;83.46
15932;BME280;8065;49.520;11.284;2023-03-24T11:57:56;96558.25;;;17.26;83.22
15932;BME280;8065;49.520;11.284;2023-03-24T12:00:30;96550.94;;;17.09;83.81
15932;BME280;8065;49.520;11.284;2023-03-24T12:03:15;96552.50;;;17.24;83.46
15932;BME280;8065;49.520;11.284;2023-03-24T12:05:51;96554.00;;;17.40;83.53
15932;BME280;8065;49.520;11.284;2023-03-24T12:08:32;96554.03;;;17.25;83.61
15932;BME280;8065;49.520;11.284;2023-03-24T12:11:11;96559.78;;;17.27;83.51
15932;BME280;8065;49.520;11.284;2023-03-24T12:13:40;96540.19;;;17.37;83.13
15932;BME280;8065;49.520;11.284;2023-03-24T12:16:18;96546.31;;;17.34;83.29
15932;BME280;8065;49.520;11.284;2023-03-24T12:18:57;96550.16;;;17.33;83.32
15932;BME280;8065;49.520;11.284;2023-03-24T12:21:39;96537.50;;;17.52;83.21
15932;BME280;8065;49.520;11.284;2023-03-24T12:24:19;96538.66;;;17.44;82.91
15932;BME280;8065;49.520;11.284;2023-03-24T12:26:54;96531.72;;;17.50;82.68
15932;BME280;8065;49.520;11.284;2023-03-24T12:29:48;96522.53;;;17.47;82.95
15932;BME280;8065;49.520;11.284;2023-03-24T12:32:28;96523.28;;;17.48;81.91
15932;BME280;8065;49.520;11.284;2023-03-24T12:35:20;96512.53;;;17.51;82.19
15932;BME280;8065;49.520;11.284;2023-03-24T12:40:52;96519.44;;;17.63;81.53
15932;BME280;8065;49.520;11.284;2023-03-24T12:43:30;96514.06;;;17.70;81.55
15932;BME280;8065;49.520;11.284;2023-03-24T12:46:06;96510.22;;;17.71;81.71
15932;BME280;8065;49.520;11.284;2023-03-24T12:48:57;96496.41;;;17.73;81.28
15932;BME280;8065;49.520;11.284;2023-03-24T12:51:33;96495.63;;;17.76;81.09
15932;BME280;8065;49.520;11.284;2023-03-24T12:54:17;96487.19;;;17.77;80.80
15932;BME280;8065;49.520;11.284;2023-03-24T12:56:49;96477.53;;;17.90;80.31
15932;BME280;8065;49.520;11.284;2023-03-24T12:59:21;96474.06;;;18.00;80.24
15932;BME280;8065;49.520;11.284;2023-03-24T13:01:54;96474.81;;;18.05;80.02
15932;BME280;8065;49.520;11.284;2023-03-24T13:04:28;96474.50;;;17.78;79.93
15932;BME280;8065;49.520;11.284;2023-03-24T13:07:15;96468.63;;;18.15;79.35
15932;BME280;8065;49.520;11.284;2023-03-24T13:10:02;96452.41;;;18.22;78.81
15932;BME280;8065;49.520;11.284;2023-03-24T13:12:37;96451.22;;;18.30;78.18
15932;BME280;8065;49.520;11.284;2023-03-24T13:15:14;96433.13;;;18.38;77.91
15932;BME280;8065;49.520;11.284;2023-03-24T13:17:46;96434.84;;;18.10;76.79
15932;BME280;8065;49.520;11.284;2023-03-24T13:20:21;96446.69;;;18.20;76.89
15932;BME280;8065;49.520;11.284;2023-03-24T13:22:50;96463.25;;;18.08;76.67
15932;BME280;8065;49.520;11.284;2023-03-24T13:25:24;96468.53;;;18.22;77.42
15932;BME280;8065;49.520;11.284;2023-03-24T13:27:59;96475.53;;;18.16;79.06
15932;BME280;8065;49.520;11.284;2023-03-24T13:30:32;96501.66;;;18.12;79.96